sensor_id;sensor_type;location;lat;lon;timestamp;pressure;altitude;pressure_sealevel;temperature;humidity
62712;BME280;48772;55.586;37.730;2023-05-03T00:01:09;99516.97;;;8.37;100.00
62712;BME280;48772;55.586;37.730;2023-05-03T00:03:35;99533.84;;;8.49;100.00
62712;BME280;48772;55.586;37.730;2023-05-03T00:06:10;99528.09;;;8.42;100.00
62712;BME280;48772;55.586;37.730;2023-05-03T00:08:36;99530.59;;;8.33;100.00
62712;BME280;48772;55.586;37.730;2023-05-03T00:11:01;99529.28;;;8.38;100.00
62712;BME280;48772;55.586;37.730;2023-05-03T00:13:27;99508.94;;;8.26;100.00
62712;BME280;48772;55.586;37.730;2023-05-03T00:15:53;99511.00;;;8.23;100.00
62712;BME280;48772;55.586;37.730;2023-05-03T00:18:19;99512.97;;;8.19;100.00
62712;BME280;48772;55.586;37.730;2023-05-03T00:20:45;99507.97;;;8.15;100.00
62712;BME280;48772;55.586;37.730;2023-05-03T00:23:11;99519.78;;;8.23;100.00
62712;BME280;48772;55.586;37.730;2023-05-03T00:25:38;99503.97;;;8.09;100.00
62712;BME280;48772;55.586;37.730;2023-05-03T00:28:04;99503.47;;;8.04;100.00
62712;BME280;48772;55.586;37.730;2023-05-03T00:30:30;99515.94;;;8.15;100.00
62712;BME280;48772;55.586;37.730;2023-05-03T00:32:56;99511.59;;;8.14;100.00
62712;BME280;48772;55.586;37.730;2023-05-03T00:35:22;99508.44;;;8.09;100.00
62712;BME280;48772;55.586;37.730;2023-05-03T00:37:48;99491.59;;;7.97;100.00
62712;BME280;48772;55.586;37.730;2023-05-03T00:40:13;99499.94;;;8.04;100.00
62712;BME280;48772;55.586;37.730;2023-05-03T00:42:43;99502.84;;;8.01;100.00
62712;BME280;48772;55.586;37.730;2023-05-03T00:45:11;99479.50;;;7.93;100.00
62712;BME280;48772;55.586;37.730;2023-05-03T00:47:37;99467.22;;;7.80;100.00
62712;BME280;48772;55.586;37.730;2023-05-03T00:50:05;99503.72;;;7.89;100.00
62712;BME280;48772;55.586;37.730;2023-05-03T00:52:31;99480.59;;;7.78;100.00
62712;BME280;48772;55.586;37.730;2023-05-03T00:54:59;99486.09;;;7.88;100.00
62712;BME280;48772;55.586;37.730;2023-05-03T00:57:26;99490.31;;;7.90;100.00
62712;BME280;48772;55.586;37.730;2023-05-03T00:59:54;99473.38;;;7.80;100.00
62712;BME280;48772;55.586;37.730;2023-05-03T01:02:21;99497.88;;;7.96;100.00
62712;BME280;48772;55.586;37.730;2023-05-03T01:04:47;99477.41;;;7.86;100.00
62712;BME280;48772;55.586;37.730;2023-05-03T01:07:34;99464.13;;;7.86;100.00
62712;BME280;48772;55.586;37.730;2023-05-03T01:18:29;99444.13;;;7.69;100.00
62712;BME280;48772;55.586;37.730;2023-05-03T01:20:58;99464.47;;;7.81;100.00
62712;BME280;48772;55.586;37.730;2023-05-03T01:23:32;99455.25;;;7.74;100.00
62712;BME280;48772;55.586;37.730;2023-05-03T01:26:34;99454.44;;;7.85;100.00
62712;BME280;48772;55.586;37.730;2023-05-03T01:28:59;99428.84;;;7.60;100.00
62712;BME280;48772;55.586;37.730;2023-05-03T01:31:47;99465.72;;;7.88;100.00
62712;BME280;48772;55.586;37.730;2023-05-03T01:34:24;99473.56;;;7.90;100.00
62712;BME280;48772;55.586;37.730;2023-05-03T01:36:56;99424.09;;;7.76;100.00
62712;BME280;48772;55.586;37.730;2023-05-03T01:39:43;99445.78;;;7.83;100.00
62712;BME280;48772;55.586;37.730;2023-05-03T01:42:11;99473.84;;;7.98;100.00
62712;BME280;48772;55.586;37.730;2023-05-03T01:44:37;99462.91;;;8.02;100.00
62712;BME280;48772;55.586;37.730;2023-05-03T01:47:04;99455.66;;;8.04;100.00
62712;BME280;48772;55.586;37.730;2023-05-03T01:49:31;99448.44;;;8.06;100.00
62712;BME280;48772;55.586;37.730;2023-05-03T01:51:57;99456.31;;;8.08;100.00
62712;BME280;48772;55.586;37.730;2023-05-03T01:54:23;99441.53;;;8.04;100.00
62712;BME280;48772;55.586;37.730;2023-05-03T01:56:50;99442.09;;;7.96;100.00
62712;BME280;48772;55.586;37.730;2023-05-03T01:59:16;99414.31;;;7.89;100.00
62712;BME280;48772;55.586;37.730;2023-05-03T02:01:42;99420.53;;;8.01;100.00
62712;BME280;48772;55.586;37.730;2023-05-03T02:04:08;99435.06;;;8.08;100.00
62712;BME280;48772;55.586;37.730;2023-05-03T02:06:35;99443.91;;;8.19;100.00
62712;BME280;48772;55.586;37.730;2023-05-03T02:09:01;99435.66;;;8.11;100.00
62712;BME280;48772;55.586;37.730;2023-05-03T02:11:27;99434.38;;;8.17;100.00
62712;BME280;48772;55.586;37.730;2023-05-03T02:14:13;99438.19;;;8.25;100.00
62712;BME280;48772;55.586;37.730;2023-05-03T02:16:38;99430.22;;;8.25;100.00
62712;BME280;48772;55.586;37.730;2023-05-03T02:19:04;99429.38;;;8.25;100.00
62712;BME280;48772;55.586;37.730;2023-05-03T02:21:33;99430.22;;;8.25;100.00
62712;BME280;48772;55.586;37.730;2023-05-03T02:23:59;99426.16;;;8.32;100.00
62712;BME280;48772;55.586;37.730;2023-05-03T02:26:25;99412.91;;;8.20;100.00
62712;BME280;48772;55.586;37.730;2023-05-03T02:28:51;99409.81;;;8.26;100.00
62712;BME280;48772;55.586;37.730;2023-05-03T02:31:17;99421.09;;;8.40;100.00
62712;BME280;48772;55.586;37.730;2023-05-03T02:33:43;99442.41;;;8.51;100.00
62712;BME280;48772;55.586;37.730;2023-05-03T02:36:10;99433.00;;;8.58;100.00
62712;BME280;48772;55.586;37.730;2023-05-03T02:38:36;99418.50;;;8.51;100.00
62712;BME280;48772;55.586;37.730;2023-05-03T02:41:02;99435.06;;;8.66;100.00
62712;BME280;48772;55.586;37.730;2023-05-03T02:43:29;99400.59;;;8.53;100.00
62712;BME280;48772;55.586;37.730;2023-05-03T02:45:56;99426.31;;;8.76;100.00
62712;BME280;48772;55.586;37.730;2023-05-03T02:48:23;99430.91;;;8.85;100.00
62712;BME280;48772;55.586;37.730;2023-05-03T02:50:49;99429.47;;;8.92;100.00
62712;BME280;48772;55.586;37.730;2023-05-03T02:53:15;99411.69;;;8.82;100.00
62712;BME280;48772;55.586;37.730;2023-05-03T02:55:42;99425.72;;;8.95;100.00
62712;BME280;48772;55.586;37.730;2023-05-03T02:58:08;99425.94;;;8.92;100.00
62712;BME280;48772;55.586;37.730;2023-05-03T03:00:34;99413.38;;;8.83;100.00
62712;BME280;48772;55.586;37.730;2023-05-03T03:03:01;99416.03;;;8.83;100.00
62712;BME280;48772;55.586;37.730;2023-05-03T03:05:26;99423.16;;;8.82;100.00
62712;BME280;48772;55.586;37.730;2023-05-03T03:07:53;99408.63;;;8.75;100.00
62712;BME280;48772;55.586;37.730;2023-05-03T03:10:19;99361.22;;;8.47;100.00
62712;BME280;48772;55.586;37.730;2023-05-03T03:12:46;99420.16;;;8.87;100.00
62712;BME280;48772;55.586;37.730;2023-05-03T03:15:21;99420.25;;;8.85;100.00
62712;BME280;48772;55.586;37.730;2023-05-03T03:17:46;99430.66;;;8.88;100.00
62712;BME280;48772;55.586;37.730;2023-05-03T03:20:13;99421.47;;;8.81;100.00
62712;BME280;48772;55.586;37.730;2023-05-03T03:22:43;99413.03;;;8.87;100.00
62712;BME280;48772;55.586;37.730;2023-05-03T03:25:10;99398.28;;;8.83;100.00
62712;BME280;48772;55.586;37.730;2023-05-03T03:27:36;99409.88;;;8.93;100.00
62712;BME280;48772;55.586;37.730;2023-05-03T03:30:02;99421.84;;;8.99;100.00
62712;BME280;48772;55.586;37.730;2023-05-03T03:32:32;99430.69;;;8.99;100.00
62712;BME280;48772;55.586;37.730;2023-05-03T03:35:00;99401.91;;;8.93;100.00
62712;BME280;48772;55.586;37.730;2023-05-03T03:37:29;99426.47;;;9.08;100.00
62712;BME280;48772;55.586;37.730;2023-05-03T03:39:55;99424.03;;;9.05;100.00
62712;BME280;48772;55.586;37.730;2023-05-03T03:42:21;99414.72;;;8.99;100.00
62712;BME280;48772;55.586;37.730;2023-05-03T03:44:48;99402.78;;;9.05;100.00
62712;BME280;48772;55.586;37.730;2023-05-03T03:47:14;99427.81;;;9.13;100.00
62712;BME280;48772;55.586;37.730;2023-05-03T03:49:40;99412.44;;;9.17;100.00
62712;BME280;48772;55.586;37.730;2023-05-03T03:52:06;99414.50;;;9.13;100.00
62712;BME280;48772;55.586;37.730;2023-05-03T03:54:34;99416.19;;;9.25;100.00
62712;BME280;48772;55.586;37.730;2023-05-03T03:57:01;99411.13;;;9.22;100.00
62712;BME280;48772;55.586;37.730;2023-05-03T03:59:32;99406.41;;;9.04;100.00
62712;BME280;48772;55.586;37.730;2023-05-03T04:01:58;99428.53;;;9.26;100.00
62712;BME280;48772;55.586;37.730;2023-05-03T04:04:24;99397.56;;;9.14;100.00
62712;BME280;48772;55.586;37.730;2023-05-03T04:06:52;99423.47;;;9.23;100.00
62712;BME280;48772;55.586;37.730;2023-05-03T04:09:19;99411.84;;;9.13;100.00
62712;BME280;48772;55.586;37.730;2023-05-03T04:11:45;99421.88;;;9.21;100.00
62712;BME280;48772;55.586;37.730;2023-05-03T04:14:12;99444.03;;;9.32;100.00
62712;BME280;48772;55.586;37.730;2023-05-03T04:16:40;99425.16;;;9.24;100.00
62712;BME280;48772;55.586;37.730;2023-05-03T04:19:06;99435.69;;;9.37;100.00
62712;BME280;48772;55.586;37.730;2023-05-03T04:21:35;99442.56;;;9.39;100.00
62712;BME280;48772;55.586;37.730;2023-05-03T04:24:02;99433.72;;;9.50;100.00
62712;BME280;48772;55.586;37.730;2023-05-03T04:26:31;99436.16;;;9.53;100.00
62712;BME280;48772;55.586;37.730;2023-05-03T04:29:02;99441.00;;;9.59;100.00
62712;BME280;48772;55.586;37.730;2023-05-03T04:31:28;99401.69;;;9.40;100.00
62712;BME280;48772;55.586;37.730;2023-05-03T04:33:55;99431.47;;;9.56;100.00
62712;BME280;48772;55.586;37.730;2023-05-03T04:36:23;99437.72;;;9.55;100.00
62712;BME280;48772;55.586;37.730;2023-05-03T04:38:55;99422.16;;;9.40;100.00
62712;BME280;48772;55.586;37.730;2023-05-03T04:41:22;99440.66;;;9.41;100.00
62712;BME280;48772;55.586;37.730;2023-05-03T04:43:49;99451.03;;;9.44;100.00
62712;BME280;48772;55.586;37.730;2023-05-03T04:46:15;99447.44;;;9.45;100.00
62712;BME280;48772;55.586;37.730;2023-05-03T04:48:44;99458.53;;;9.39;100.00
62712;BME280;48772;55.586;37.730;2023-05-03T04:51:10;99429.63;;;9.24;100.00
62712;BME280;48772;55.586;37.730;2023-05-03T04:53:37;99478.13;;;9.27;100.00
62712;BME280;48772;55.586;37.730;2023-05-03T04:56:08;99462.88;;;9.18;100.00
62712;BME280;48772;55.586;37.730;2023-05-03T04:58:37;99471.22;;;9.14;100.00
62712;BME280;48772;55.586;37.730;2023-05-03T05:01:04;99462.16;;;9.16;100.00
62712;BME280;48772;55.586;37.730;2023-05-03T05:03:34;99457.94;;;9.14;100.00
62712;BME280;48772;55.586;37.730;2023-05-03T05:06:08;99458.41;;;9.08;100.00
62712;BME280;48772;55.586;37.730;2023-05-03T05:08:37;99470.59;;;9.10;100.00
62712;BME280;48772;55.586;37.730;2023-05-03T05:11:09;99467.22;;;8.97;100.00
62712;BME280;48772;55.586;37.730;2023-05-03T05:13:35;99451.97;;;8.99;100.00
62712;BME280;48772;55.586;37.730;2023-05-03T05:16:23;99481.25;;;9.10;100.00
62712;BME280;48772;55.586;37.730;2023-05-03T05:18:52;99482.34;;;9.08;100.00
62712;BME280;48772;55.586;37.730;2023-05-03T05:21:22;99476.56;;;9.14;100.00
62712;BME280;48772;55.586;37.730;2023-05-03T05:23:47;99476.69;;;9.23;100.00
62712;BME280;48772;55.586;37.730;2023-05-03T05:26:13;99472.19;;;9.24;100.00
62712;BME280;48772;55.586;37.730;2023-05-03T05:28:40;99477.63;;;9.22;100.00
62712;BME280;48772;55.586;37.730;2023-05-03T05:31:06;99465.19;;;9.23;100.00
62712;BME280;48772;55.586;37.730;2023-05-03T05:36:17;99473.53;;;9.40;100.00
62712;BME280;48772;55.586;37.730;2023-05-03T05:38:43;99464.84;;;9.38;100.00
62712;BME280;48772;55.586;37.730;2023-05-03T05:41:10;99471.84;;;9.61;100.00
62712;BME280;48772;55.586;37.730;2023-05-03T05:43:39;99467.13;;;9.65;100.00
62712;BME280;48772;55.586;37.730;2023-05-03T05:48:51;99474.50;;;9.72;100.00
62712;BME280;48772;55.586;37.730;2023-05-03T05:51:17;99461.66;;;9.77;100.00
62712;BME280;48772;55.586;37.730;2023-05-03T05:53:50;99469.31;;;9.82;100.00
62712;BME280;48772;55.586;37.730;2023-05-03T05:56:18;99472.06;;;9.91;100.00
62712;BME280;48772;55.586;37.730;2023-05-03T05:58:59;99467.47;;;9.93;100.00
62712;BME280;48772;55.586;37.730;2023-05-03T06:01:25;99469.16;;;10.17;100.00
62712;BME280;48772;55.586;37.730;2023-05-03T06:03:52;99475.06;;;10.63;100.00
62712;BME280;48772;55.586;37.730;2023-05-03T06:06:19;99477.31;;;11.19;100.00
62712;BME280;48772;55.586;37.730;2023-05-03T06:08:45;99472.22;;;11.37;100.00
62712;BME280;48772;55.586;37.730;2023-05-03T06:11:14;99488.53;;;11.64;100.00
62712;BME280;48772;55.586;37.730;2023-05-03T06:13:42;99470.06;;;11.81;100.00
62712;BME280;48772;55.586;37.730;2023-05-03T06:16:10;99446.53;;;11.66;100.00
62712;BME280;48772;55.586;37.730;2023-05-03T06:18:55;99460.78;;;11.76;100.00
62712;BME280;48772;55.586;37.730;2023-05-03T06:21:21;99456.50;;;11.64;100.00
62712;BME280;48772;55.586;37.730;2023-05-03T06:23:47;99468.47;;;11.49;100.00
62712;BME280;48772;55.586;37.730;2023-05-03T06:26:13;99479.94;;;11.60;100.00
62712;BME280;48772;55.586;37.730;2023-05-03T06:28:40;99475.97;;;11.85;100.00
62712;BME280;48772;55.586;37.730;2023-05-03T06:31:06;99460.88;;;12.14;100.00
62712;BME280;48772;55.586;37.730;2023-05-03T06:33:32;99482.38;;;12.03;100.00
62712;BME280;48772;55.586;37.730;2023-05-03T06:35:58;99467.97;;;11.85;100.00
62712;BME280;48772;55.586;37.730;2023-05-03T06:38:24;99483.69;;;11.78;100.00
62712;BME280;48772;55.586;37.730;2023-05-03T06:40:49;99476.50;;;11.79;100.00
62712;BME280;48772;55.586;37.730;2023-05-03T06:43:15;99489.91;;;11.88;100.00
62712;BME280;48772;55.586;37.730;2023-05-03T06:46:02;99482.94;;;12.16;100.00
62712;BME280;48772;55.586;37.730;2023-05-03T06:48:28;99473.34;;;12.53;100.00
62712;BME280;48772;55.586;37.730;2023-05-03T06:50:54;99458.81;;;12.93;100.00
62712;BME280;48772;55.586;37.730;2023-05-03T06:53:19;99463.78;;;12.98;100.00
62712;BME280;48772;55.586;37.730;2023-05-03T06:55:45;99455.00;;;12.77;100.00
62712;BME280;48772;55.586;37.730;2023-05-03T06:58:11;99472.78;;;12.87;100.00
62712;BME280;48772;55.586;37.730;2023-05-03T07:00:37;99452.91;;;12.90;100.00
62712;BME280;48772;55.586;37.730;2023-05-03T07:03:04;99475.34;;;12.98;100.00
62712;BME280;48772;55.586;37.730;2023-05-03T07:05:31;99473.59;;;12.69;100.00
62712;BME280;48772;55.586;37.730;2023-05-03T07:07:57;99477.28;;;12.77;100.00
62712;BME280;48772;55.586;37.730;2023-05-03T07:10:23;99486.31;;;13.05;100.00
62712;BME280;48772;55.586;37.730;2023-05-03T07:12:50;99493.94;;;13.09;100.00
62712;BME280;48772;55.586;37.730;2023-05-03T07:15:16;99508.25;;;12.89;100.00
62712;BME280;48772;55.586;37.730;2023-05-03T07:17:41;99498.41;;;12.90;100.00
62712;BME280;48772;55.586;37.730;2023-05-03T07:20:08;99485.72;;;12.82;100.00
62712;BME280;48772;55.586;37.730;2023-05-03T07:22:34;99476.00;;;12.72;100.00
62712;BME280;48772;55.586;37.730;2023-05-03T07:25:00;99505.84;;;12.67;100.00
62712;BME280;48772;55.586;37.730;2023-05-03T07:27:26;99509.06;;;12.61;100.00
62712;BME280;48772;55.586;37.730;2023-05-03T07:29:51;99510.06;;;12.60;100.00
62712;BME280;48772;55.586;37.730;2023-05-03T07:32:18;99503.31;;;12.66;100.00
62712;BME280;48772;55.586;37.730;2023-05-03T07:34:44;99486.56;;;12.83;100.00
62712;BME280;48772;55.586;37.730;2023-05-03T07:37:10;99470.06;;;12.78;100.00
62712;BME280;48772;55.586;37.730;2023-05-03T07:39:36;99443.47;;;12.38;100.00
62712;BME280;48772;55.586;37.730;2023-05-03T07:42:02;99492.34;;;12.69;100.00
62712;BME280;48772;55.586;37.730;2023-05-03T07:44:27;99505.16;;;12.75;100.00
62712;BME280;48772;55.586;37.730;2023-05-03T07:46:53;99514.72;;;12.68;100.00
62712;BME280;48772;55.586;37.730;2023-05-03T07:49:19;99523.03;;;12.65;100.00
62712;BME280;48772;55.586;37.730;2023-05-03T07:51:45;99505.13;;;12.46;100.00
62712;BME280;48772;55.586;37.730;2023-05-03T07:54:11;99523.16;;;12.54;100.00
62712;BME280;48772;55.586;37.730;2023-05-03T07:56:37;99516.41;;;12.50;100.00
62712;BME280;48772;55.586;37.730;2023-05-03T07:59:03;99517.53;;;12.47;100.00
62712;BME280;48772;55.586;37.730;2023-05-03T08:01:29;99541.63;;;12.76;100.00
62712;BME280;48772;55.586;37.730;2023-05-03T08:03:54;99530.78;;;12.87;100.00
62712;BME280;48772;55.586;37.730;2023-05-03T08:06:20;99518.97;;;12.80;100.00
62712;BME280;48772;55.586;37.730;2023-05-03T08:08:46;99524.91;;;12.93;100.00
62712;BME280;48772;55.586;37.730;2023-05-03T08:11:12;99538.16;;;13.04;100.00
62712;BME280;48772;55.586;37.730;2023-05-03T08:13:38;99531.94;;;12.94;100.00
62712;BME280;48772;55.586;37.730;2023-05-03T08:16:05;99566.34;;;13.08;100.00
62712;BME280;48772;55.586;37.730;2023-05-03T08:18:31;99562.63;;;12.90;100.00
62712;BME280;48772;55.586;37.730;2023-05-03T08:20:57;99567.31;;;13.07;100.00
62712;BME280;48772;55.586;37.730;2023-05-03T08:23:24;99584.31;;;12.87;100.00
62712;BME280;48772;55.586;37.730;2023-05-03T08:25:50;99588.22;;;12.64;100.00
62712;BME280;48772;55.586;37.730;2023-05-03T08:28:17;99582.34;;;12.30;100.00
62712;BME280;48772;55.586;37.730;2023-05-03T08:30:43;99576.50;;;12.16;100.00
62712;BME280;48772;55.586;37.730;2023-05-03T08:33:10;99586.66;;;12.12;100.00
62712;BME280;48772;55.586;37.730;2023-05-03T08:38:20;99597.66;;;11.68;100.00
62712;BME280;48772;55.586;37.730;2023-05-03T08:40:47;99580.94;;;11.35;100.00
62712;BME280;48772;55.586;37.730;2023-05-03T08:43:18;99576.53;;;11.45;100.00
62712;BME280;48772;55.586;37.730;2023-05-03T08:45:45;99566.22;;;11.20;100.00
62712;BME280;48772;55.586;37.730;2023-05-03T08:48:12;99603.34;;;11.43;100.00
62712;BME280;48772;55.586;37.730;2023-05-03T08:50:39;99573.72;;;11.26;100.00
62712;BME280;48772;55.586;37.730;2023-05-03T08:53:08;99561.75;;;11.20;100.00
62712;BME280;48772;55.586;37.730;2023-05-03T08:58:18;99581.34;;;11.92;100.00
62712;BME280;48772;55.586;37.730;2023-05-03T09:00:44;99577.59;;;12.04;100.00
62712;BME280;48772;55.586;37.730;2023-05-03T09:03:10;99560.72;;;12.03;100.00
62712;BME280;48772;55.586;37.730;2023-05-03T09:05:36;99591.13;;;11.82;100.00
62712;BME280;48772;55.586;37.730;2023-05-03T09:08:10;99611.19;;;11.76;100.00
62712;BME280;48772;55.586;37.730;2023-05-03T09:10:39;99612.25;;;11.64;100.00
62712;BME280;48772;55.586;37.730;2023-05-03T09:13:06;99639.31;;;11.39;100.00
62712;BME280;48772;55.586;37.730;2023-05-03T09:15:33;99614.34;;;11.29;100.00
62712;BME280;48772;55.586;37.730;2023-05-03T09:20:35;99613.97;;;11.34;100.00
62712;BME280;48772;55.586;37.730;2023-05-03T09:23:01;99605.03;;;11.24;100.00
62712;BME280;48772;55.586;37.730;2023-05-03T09:25:48;99600.97;;;11.09;100.00
62712;BME280;48772;55.586;37.730;2023-05-03T09:28:15;99588.59;;;11.08;100.00
62712;BME280;48772;55.586;37.730;2023-05-03T09:30:43;99613.47;;;11.08;100.00
62712;BME280;48772;55.586;37.730;2023-05-03T09:33:09;99603.19;;;11.04;100.00
62712;BME280;48772;55.586;37.730;2023-05-03T09:35:37;99591.78;;;11.02;100.00
62712;BME280;48772;55.586;37.730;2023-05-03T09:38:03;99621.16;;;11.22;100.00
62712;BME280;48772;55.586;37.730;2023-05-03T09:40:29;99587.13;;;11.15;100.00
62712;BME280;48772;55.586;37.730;2023-05-03T09:43:11;99589.84;;;11.04;100.00
62712;BME280;48772;55.586;37.730;2023-05-03T09:45:39;99610.41;;;11.13;100.00
62712;BME280;48772;55.586;37.730;2023-05-03T09:48:05;99601.22;;;11.06;100.00
62712;BME280;48772;55.586;37.730;2023-05-03T09:50:33;99598.66;;;11.04;100.00
62712;BME280;48772;55.586;37.730;2023-05-03T09:53:04;99611.41;;;11.12;100.00
62712;BME280;48772;55.586;37.730;2023-05-03T09:55:39;99627.13;;;11.26;100.00
62712;BME280;48772;55.586;37.730;2023-05-03T09:58:06;99613.38;;;11.30;100.00
62712;BME280;48772;55.586;37.730;2023-05-03T10:00:38;99639.88;;;11.43;100.00
62712;BME280;48772;55.586;37.730;2023-05-03T10:03:13;99621.81;;;11.67;100.00
62712;BME280;48772;55.586;37.730;2023-05-03T10:05:47;99618.31;;;12.17;100.00
62712;BME280;48772;55.586;37.730;2023-05-03T10:10:44;99631.31;;;12.70;100.00
62712;BME280;48772;55.586;37.730;2023-05-03T10:13:13;99638.63;;;12.68;100.00
62712;BME280;48772;55.586;37.730;2023-05-03T10:15:43;99644.56;;;12.72;100.00
62712;BME280;48772;55.586;37.730;2023-05-03T10:18:12;99610.47;;;12.74;100.00
62712;BME280;48772;55.586;37.730;2023-05-03T10:20:46;99613.97;;;13.14;100.00
62712;BME280;48772;55.586;37.730;2023-05-03T10:23:16;99614.53;;;13.56;100.00
62712;BME280;48772;55.586;37.730;2023-05-03T10:28:32;99602.81;;;14.22;100.00
62712;BME280;48772;55.586;37.730;2023-05-03T10:30:58;99604.97;;;14.09;100.00
62712;BME280;48772;55.586;37.730;2023-05-03T10:33:31;99621.06;;;14.09;100.00
62712;BME280;48772;55.586;37.730;2023-05-03T10:36:07;99611.31;;;13.98;100.00
62712;BME280;48772;55.586;37.730;2023-05-03T10:38:35;99618.38;;;13.99;100.00
62712;BME280;48772;55.586;37.730;2023-05-03T10:41:02;99616.69;;;13.98;100.00
62712;BME280;48772;55.586;37.730;2023-05-03T10:46:04;99607.69;;;13.90;100.00
62712;BME280;48772;55.586;37.730;2023-05-03T10:48:31;99590.47;;;13.83;100.00
62712;BME280;48772;55.586;37.730;2023-05-03T10:53:57;99594.56;;;13.96;100.00
62712;BME280;48772;55.586;37.730;2023-05-03T10:56:23;99598.31;;;14.22;100.00
62712;BME280;48772;55.586;37.730;2023-05-03T10:58:50;99591.31;;;14.39;100.00
62712;BME280;48772;55.586;37.730;2023-05-03T11:01:22;99618.78;;;14.50;100.00
62712;BME280;48772;55.586;37.730;2023-05-03T11:04:12;99601.38;;;14.27;100.00
62712;BME280;48772;55.586;37.730;2023-05-03T11:06:41;99608.19;;;14.58;100.00
62712;BME280;48772;55.586;37.730;2023-05-03T11:09:08;99561.19;;;14.45;100.00
62712;BME280;48772;55.586;37.730;2023-05-03T11:11:38;99592.06;;;14.58;100.00
62712;BME280;48772;55.586;37.730;2023-05-03T11:14:05;99575.66;;;14.61;100.00
62712;BME280;48772;55.586;37.730;2023-05-03T11:16:31;99582.47;;;15.00;100.00
62712;BME280;48772;55.586;37.730;2023-05-03T11:18:58;99610.63;;;15.66;100.00
62712;BME280;48772;55.586;37.730;2023-05-03T11:21:27;99578.56;;;15.90;100.00
62712;BME280;48772;55.586;37.730;2023-05-03T11:23:53;99564.53;;;16.04;100.00
62712;BME280;48772;55.586;37.730;2023-05-03T11:26:19;99568.91;;;16.05;100.00
62712;BME280;48772;55.586;37.730;2023-05-03T11:28:50;99587.00;;;16.21;100.00
62712;BME280;48772;55.586;37.730;2023-05-03T11:31:16;99588.75;;;16.04;100.00
62712;BME280;48772;55.586;37.730;2023-05-03T11:33:42;99587.28;;;15.67;100.00
62712;BME280;48772;55.586;37.730;2023-05-03T11:36:09;99572.69;;;15.34;100.00
62712;BME280;48772;55.586;37.730;2023-05-03T11:38:37;99537.25;;;15.48;100.00
62712;BME280;48772;55.586;37.730;2023-05-03T11:41:17;99507.00;;;15.97;100.00
62712;BME280;48772;55.586;37.730;2023-05-03T11:44:01;99600.34;;;16.38;100.00
62712;BME280;48772;55.586;37.730;2023-05-03T11:46:33;99550.66;;;16.59;100.00
62712;BME280;48772;55.586;37.730;2023-05-03T11:49:02;99546.38;;;16.90;100.00
62712;BME280;48772;55.586;37.730;2023-05-03T11:51:30;99571.81;;;16.87;100.00
62712;BME280;48772;55.586;37.730;2023-05-03T11:53:59;99549.13;;;16.22;100.00
62712;BME280;48772;55.586;37.730;2023-05-03T11:56:28;99564.72;;;16.44;100.00
62712;BME280;48772;55.586;37.730;2023-05-03T11:58:57;99557.53;;;16.53;100.00
62712;BME280;48772;55.586;37.730;2023-05-03T12:01:26;99533.06;;;16.38;100.00
62712;BME280;48772;55.586;37.730;2023-05-03T12:04:01;99547.53;;;16.37;100.00
62712;BME280;48772;55.586;37.730;2023-05-03T12:06:30;99573.19;;;16.50;100.00
62712;BME280;48772;55.586;37.730;2023-05-03T12:08:59;99590.13;;;16.42;100.00
62712;BME280;48772;55.586;37.730;2023-05-03T12:11:25;99589.59;;;16.13;100.00
62712;BME280;48772;55.586;37.730;2023-05-03T12:13:59;99572.06;;;16.34;100.00
62712;BME280;48772;55.586;37.730;2023-05-03T12:16:45;99583.66;;;16.61;100.00
62712;BME280;48772;55.586;37.730;2023-05-03T12:19:11;99572.03;;;16.26;100.00
62712;BME280;48772;55.586;37.730;2023-05-03T12:21:45;99565.72;;;16.93;100.00
62712;BME280;48772;55.586;37.730;2023-05-03T12:24:11;99566.03;;;16.82;100.00
62712;BME280;48772;55.586;37.730;2023-05-03T12:26:45;99581.75;;;16.53;100.00
62712;BME280;48772;55.586;37.730;2023-05-03T12:29:11;99594.44;;;16.35;100.00
62712;BME280;48772;55.586;37.730;2023-05-03T12:31:39;99583.78;;;15.92;100.00
62712;BME280;48772;55.586;37.730;2023-05-03T12:34:06;99534.31;;;15.59;100.00
62712;BME280;48772;55.586;37.730;2023-05-03T12:36:33;99564.50;;;16.38;100.00
62712;BME280;48772;55.586;37.730;2023-05-03T12:39:01;99573.03;;;16.25;100.00
62712;BME280;48772;55.586;37.730;2023-05-03T12:41:28;99592.84;;;16.16;100.00
62712;BME280;48772;55.586;37.730;2023-05-03T12:43:57;99603.03;;;16.38;100.00
62712;BME280;48772;55.586;37.730;2023-05-03T12:46:23;99583.06;;;16.83;100.00
62712;BME280;48772;55.586;37.730;2023-05-03T12:48:51;99599.25;;;16.91;100.00
62712;BME280;48772;55.586;37.730;2023-05-03T12:51:17;99586.22;;;16.70;100.00
62712;BME280;48772;55.586;37.730;2023-05-03T12:53:44;99537.97;;;16.09;100.00
62712;BME280;48772;55.586;37.730;2023-05-03T12:56:12;99581.09;;;16.51;100.00
62712;BME280;48772;55.586;37.730;2023-05-03T12:58:38;99576.03;;;16.22;100.00
62712;BME280;48772;55.586;37.730;2023-05-03T13:01:07;99569.38;;;16.34;100.00
62712;BME280;48772;55.586;37.730;2023-05-03T13:03:34;99575.94;;;16.32;100.00
62712;BME280;48772;55.586;37.730;2023-05-03T13:06:00;99576.50;;;16.10;100.00
62712;BME280;48772;55.586;37.730;2023-05-03T13:08:29;99621.16;;;16.28;100.00
62712;BME280;48772;55.586;37.730;2023-05-03T13:10:56;99596.16;;;16.10;100.00
62712;BME280;48772;55.586;37.730;2023-05-03T13:13:21;99596.13;;;16.02;100.00
62712;BME280;48772;55.586;37.730;2023-05-03T13:15:49;99606.75;;;16.12;100.00
62712;BME280;48772;55.586;37.730;2023-05-03T13:18:17;99614.13;;;15.84;100.00
62712;BME280;48772;55.586;37.730;2023-05-03T13:20:43;99595.47;;;15.57;100.00
62712;BME280;48772;55.586;37.730;2023-05-03T13:23:08;99592.78;;;15.40;100.00